Time;durP1;ratioP1;P1;durP2;ratioP2;P2;SDS_P1;SDS_P2;PMS_P1;PMS_P2;Temp;Humidity;BMP_temperature;BMP_pressure;BME280_temperature;BME280_humidity;BME280_pressure;Samples;Min_cycle;Max_cycle;Signal;HPM_P1;HPM_P2
2021/09/17 00:01:19;;;;;;;5.60;4.40;;;12.40;99.90;;;;;;5065864;28;20470;-69
2021/09/17 00:03:46;;;;;;;5.35;4.95;;;12.40;99.90;;;;;;5065571;28;20462;-69
2021/09/17 00:06:12;;;;;;;5.03;4.57;;;12.40;99.90;;;;;;5066049;28;20204;-69
2021/09/17 00:08:39;;;;;;;7.63;4.07;;;12.40;99.90;;;;;;5065557;28;20231;-69
2021/09/17 00:11:07;;;;;;;4.97;4.47;;;12.40;99.90;;;;;;5065886;28;20211;-69
2021/09/17 00:13:34;;;;;;;5.20;4.80;;;12.50;99.90;;;;;;5065004;28;20204;-69
2021/09/17 00:16:01;;;;;;;5.07;4.63;;;12.50;99.90;;;;;;5066290;28;20466;-68
2021/09/17 00:18:29;;;;;;;5.15;4.63;;;12.50;99.90;;;;;;5065761;28;20250;-69
2021/09/17 00:20:56;;;;;;;6.50;4.93;;;12.50;99.90;;;;;;5065667;28;20570;-69
2021/09/17 00:23:23;;;;;;;4.63;4.20;;;12.60;99.90;;;;;;5065097;28;20330;-69
2021/09/17 00:25:50;;;;;;;5.40;4.80;;;12.60;99.90;;;;;;5065217;28;20970;-69
2021/09/17 00:28:18;;;;;;;5.10;4.60;;;12.60;99.90;;;;;;5065601;28;20228;-69
2021/09/17 00:30:45;;;;;;;6.40;4.85;;;12.60;99.90;;;;;;5065396;28;20970;-68
2021/09/17 00:33:11;;;;;;;4.47;4.07;;;12.60;99.90;;;;;;5065580;28;20204;-69
2021/09/17 00:35:38;;;;;;;4.70;4.30;;;12.60;99.90;;;;;;5065200;28;20462;-69
2021/09/17 00:38:05;;;;;;;5.77;4.40;;;12.60;99.90;;;;;;5065795;28;20495;-69
2021/09/17 00:40:32;;;;;;;5.17;4.57;;;12.70;99.90;;;;;;5065673;28;20458;-69
2021/09/17 00:42:59;;;;;;;4.87;4.37;;;12.60;99.90;;;;;;5065036;28;20466;-69
2021/09/17 00:45:28;;;;;;;4.38;3.97;;;12.70;99.90;;;;;;5065798;28;20494;-69
2021/09/17 00:47:54;;;;;;;7.82;4.57;;;12.70;99.90;;;;;;5064296;28;20220;-69
2021/09/17 00:50:23;;;;;;;4.80;4.40;;;12.70;99.90;;;;;;5064570;28;20208;-69
2021/09/17 00:52:51;;;;;;;4.80;4.32;;;12.70;99.90;;;;;;5063759;28;20200;-69
2021/09/17 00:55:18;;;;;;;5.95;4.50;;;12.70;99.90;;;;;;5064805;28;20200;-69
2021/09/17 00:57:45;;;;;;;4.55;3.92;;;12.70;99.90;;;;;;5064051;28;20230;-69
2021/09/17 01:00:14;;;;;;;3.90;3.50;;;12.70;99.90;;;;;;5064307;28;20228;-69
2021/09/17 01:02:43;;;;;;;4.63;4.20;;;12.70;99.90;;;;;;5064030;28;20203;-69
2021/09/17 01:05:12;;;;;;;4.87;4.40;;;12.80;99.90;;;;;;5064511;28;20985;-69
2021/09/17 01:07:39;;;;;;;4.10;3.70;;;12.80;99.90;;;;;;5064982;28;20830;-69
2021/09/17 01:10:07;;;;;;;5.78;4.40;;;12.80;99.90;;;;;;5069326;28;21395;-69
2021/09/17 01:12:36;;;;;;;6.43;5.10;;;12.70;99.90;;;;;;5069109;28;20208;-69
2021/09/17 01:15:03;;;;;;;5.00;4.50;;;12.80;99.90;;;;;;5069134;28;20765;-69
2021/09/17 01:17:36;;;;;;;5.20;4.70;;;12.80;99.90;;;;;;5069015;28;20487;-69
2021/09/17 01:20:06;;;;;;;5.47;4.97;;;12.80;99.90;;;;;;5069023;28;20587;-69
2021/09/17 01:22:34;;;;;;;5.95;4.57;;;12.90;99.90;;;;;;5068474;28;21003;-69
2021/09/17 01:25:01;;;;;;;5.18;4.57;;;12.90;99.90;;;;;;5069053;28;20200;-69
2021/09/17 01:27:28;;;;;;;5.23;4.43;;;12.90;99.90;;;;;;5068393;28;20724;-69
2021/09/17 01:29:55;;;;;;;6.90;4.80;;;13.00;99.90;;;;;;5068500;28;20463;-69
2021/09/17 01:32:22;;;;;;;5.68;5.07;;;13.00;99.90;;;;;;5068488;28;20489;-69
2021/09/17 01:34:49;;;;;;;4.40;4.10;;;13.00;99.90;;;;;;5067549;28;20204;-69
2021/09/17 01:37:15;;;;;;;4.93;4.53;;;13.00;99.90;;;;;;5068599;28;20215;-69
2021/09/17 01:39:44;;;;;;;5.70;4.10;;;13.00;99.90;;;;;;5067709;28;20490;-69
2021/09/17 01:42:10;;;;;;;7.53;4.63;;;13.00;99.90;;;;;;5068136;28;20484;-69
2021/09/17 01:44:39;;;;;;;4.63;4.10;;;13.00;99.90;;;;;;5068037;28;20473;-69
2021/09/17 01:47:07;;;;;;;4.93;4.43;;;13.00;99.90;;;;;;5068177;28;20466;-68
2021/09/17 01:49:34;;;;;;;4.30;3.90;;;13.00;99.90;;;;;;5068183;28;20204;-69
2021/09/17 01:52:02;;;;;;;4.70;4.30;;;13.00;99.90;;;;;;5068141;28;20578;-69
2021/09/17 01:54:28;;;;;;;5.00;4.60;;;13.00;99.90;;;;;;5067544;28;20485;-69
2021/09/17 01:56:57;;;;;;;4.80;4.33;;;13.00;99.90;;;;;;5066996;28;20470;-69
2021/09/17 01:59:23;;;;;;;5.43;4.40;;;13.00;99.90;;;;;;5067556;28;20556;-69
2021/09/17 02:01:50;;;;;;;4.78;4.30;;;13.00;99.90;;;;;;5067651;28;20469;-69
2021/09/17 02:04:19;;;;;;;4.63;4.23;;;13.00;99.90;;;;;;5066965;28;20200;-69
2021/09/17 02:06:45;;;;;;;4.67;4.27;;;13.00;99.90;;;;;;5067533;28;21299;-69
2021/09/17 02:09:12;;;;;;;4.50;4.10;;;13.00;99.90;;;;;;5067173;28;20482;-69
2021/09/17 02:11:39;;;;;;;4.10;3.70;;;13.00;99.90;;;;;;5066898;28;20807;-69
2021/09/17 02:14:07;;;;;;;5.13;4.63;;;13.00;99.90;;;;;;5066700;28;20459;-69
2021/09/17 02:16:34;;;;;;;4.40;4.00;;;13.10;99.90;;;;;;5067434;28;20470;-69
2021/09/17 02:19:01;;;;;;;5.03;4.33;;;13.00;99.90;;;;;;5067186;28;20504;-69
2021/09/17 02:21:30;;;;;;;5.37;3.90;;;13.00;99.90;;;;;;5065802;28;20466;-69
2021/09/17 02:23:57;;;;;;;5.00;4.50;;;13.10;99.90;;;;;;5066625;28;20854;-70
2021/09/17 02:26:24;;;;;;;5.23;4.63;;;13.00;99.90;;;;;;5066282;28;20507;-69
2021/09/17 02:28:50;;;;;;;4.57;4.10;;;13.00;99.90;;;;;;5058205;28;20471;-69
2021/09/17 02:31:19;;;;;;;4.60;4.17;;;13.00;99.90;;;;;;5049362;28;21202;-69
2021/09/17 02:33:45;;;;;;;4.33;4.03;;;13.00;99.90;;;;;;5047211;28;20470;-69
2021/09/17 02:36:12;;;;;;;6.43;4.30;;;13.10;99.90;;;;;;5129438;23;20887;-72
2021/09/17 02:38:39;;;;;;;6.00;4.60;;;13.10;99.90;;;;;;5068591;28;20475;-72
2021/09/17 02:41:06;;;;;;;4.23;3.90;;;13.00;99.90;;;;;;5072676;28;20461;-72
2021/09/17 02:43:33;;;;;;;6.10;3.87;;;13.00;99.90;;;;;;5071427;28;20459;-72
2021/09/17 02:45:59;;;;;;;4.80;4.30;;;13.00;99.90;;;;;;5072776;28;20459;-72
2021/09/17 02:48:28;;;;;;;4.37;3.97;;;13.00;99.90;;;;;;5072270;28;20986;-72
2021/09/17 02:50:55;;;;;;;6.10;3.80;;;13.00;99.90;;;;;;5072782;28;20845;-72
2021/09/17 02:53:22;;;;;;;4.50;3.80;;;13.00;99.90;;;;;;5071921;28;20462;-72
2021/09/17 02:55:49;;;;;;;6.07;4.23;;;13.10;99.90;;;;;;5072430;28;20466;-72
2021/09/17 02:58:15;;;;;;;4.97;4.23;;;13.10;99.90;;;;;;5072273;28;20479;-72
2021/09/17 03:00:42;;;;;;;4.57;4.17;;;13.10;99.90;;;;;;5072303;28;20486;-72
2021/09/17 03:03:09;;;;;;;4.30;3.97;;;13.10;99.90;;;;;;5071817;28;20458;-72
2021/09/17 03:05:37;;;;;;;4.80;4.40;;;13.10;99.90;;;;;;5072129;28;20455;-72
2021/09/17 03:08:04;;;;;;;4.50;4.10;;;13.10;99.90;;;;;;5072290;28;20483;-72
2021/09/17 03:10:31;;;;;;;4.53;4.13;;;13.10;99.90;;;;;;5072221;28;20454;-72
2021/09/17 03:12:59;;;;;;;4.67;4.27;;;13.10;99.90;;;;;;5071563;28;20465;-73
2021/09/17 03:15:26;;;;;;;4.50;4.10;;;13.10;99.90;;;;;;5071989;28;20489;-72
2021/09/17 03:17:53;;;;;;;5.67;4.60;;;13.10;99.90;;;;;;5071876;28;20483;-72
2021/09/17 03:20:20;;;;;;;4.85;4.45;;;13.10;99.90;;;;;;5071869;28;20493;-72
2021/09/17 03:22:48;;;;;;;4.50;4.13;;;13.10;99.90;;;;;;5071369;28;20200;-72
2021/09/17 03:25:15;;;;;;;4.85;4.03;;;13.10;99.90;;;;;;5071749;28;20465;-72
2021/09/17 03:27:42;;;;;;;4.57;4.00;;;13.10;99.90;;;;;;5071724;28;20224;-72
2021/09/17 03:30:10;;;;;;;4.90;4.40;;;13.10;99.90;;;;;;5071649;28;20458;-72
2021/09/17 03:32:37;;;;;;;4.57;4.17;;;13.10;99.90;;;;;;5070038;28;20883;-72
2021/09/17 03:35:04;;;;;;;4.90;4.37;;;13.10;99.90;;;;;;5071352;28;20474;-72
2021/09/17 03:37:31;;;;;;;5.33;4.00;;;13.10;99.90;;;;;;5071688;28;20891;-73
2021/09/17 03:39:59;;;;;;;4.63;4.23;;;13.10;99.90;;;;;;5071470;28;20486;-72
2021/09/17 03:42:28;;;;;;;5.93;4.30;;;13.10;99.90;;;;;;5070894;28;20467;-73
2021/09/17 03:44:55;;;;;;;5.00;4.50;;;13.10;99.90;;;;;;5071289;28;20484;-72
2021/09/17 03:47:22;;;;;;;5.70;4.87;;;13.10;99.90;;;;;;5068336;28;20466;-72
2021/09/17 03:49:48;;;;;;;4.20;3.90;;;13.10;99.90;;;;;;5067329;28;20446;-73
2021/09/17 03:52:15;;;;;;;4.73;4.20;;;13.10;99.90;;;;;;5067217;28;20470;-72
2021/09/17 03:54:42;;;;;;;4.73;4.23;;;13.00;99.90;;;;;;5069059;28;20465;-72
2021/09/17 03:57:10;;;;;;;4.90;4.50;;;13.10;99.90;;;;;;5068443;28;20503;-73
2021/09/17 03:59:37;;;;;;;5.80;4.13;;;13.10;99.90;;;;;;5069969;28;20482;-72
2021/09/17 04:02:04;;;;;;;5.00;4.40;;;13.00;99.90;;;;;;5063207;28;20924;-72
2021/09/17 04:04:31;;;;;;;5.23;4.07;;;13.10;99.90;;;;;;5069070;28;20451;-73
2021/09/17 04:06:58;;;;;;;4.83;4.27;;;13.10;99.90;;;;;;5069561;28;20543;-73
2021/09/17 04:09:25;;;;;;;4.67;4.10;;;13.10;99.90;;;;;;5069279;28;20497;-73
2021/09/17 04:11:52;;;;;;;4.83;4.17;;;13.10;99.90;;;;;;5069746;28;20458;-72
2021/09/17 04:14:20;;;;;;;4.10;3.70;;;13.00;99.90;;;;;;5069165;28;20584;-73
2021/09/17 04:16:46;;;;;;;7.70;4.30;;;13.10;99.90;;;;;;5085788;28;20468;-72
2021/09/17 04:19:13;;;;;;;6.73;4.17;;;13.10;99.90;;;;;;5090103;28;20481;-72
2021/09/17 04:21:40;;;;;;;6.60;3.90;;;13.10;99.90;;;;;;5090914;28;20453;-73
2021/09/17 04:24:06;;;;;;;4.50;4.10;;;13.10;99.90;;;;;;5090079;28;20462;-72
2021/09/17 04:26:33;;;;;;;4.90;4.27;;;13.00;99.90;;;;;;5090342;28;20462;-73
2021/09/17 04:29:00;;;;;;;6.63;3.97;;;13.00;99.90;;;;;;5090187;28;20485;-72
2021/09/17 04:31:28;;;;;;;5.10;4.33;;;13.10;99.90;;;;;;5089701;28;21195;-72
2021/09/17 04:33:55;;;;;;;4.80;4.30;;;13.10;99.90;;;;;;5090433;28;20518;-72
2021/09/17 04:36:21;;;;;;;5.00;4.60;;;13.10;99.90;;;;;;5090214;28;20468;-72
2021/09/17 04:38:48;;;;;;;5.80;4.80;;;13.10;99.90;;;;;;5090752;28;21000;-72
2021/09/17 04:41:15;;;;;;;5.00;4.50;;;13.10;99.90;;;;;;5129736;22;20503;-72
2021/09/17 04:43:41;;;;;;;4.90;4.37;;;13.10;99.90;;;;;;5068995;28;20462;-72
2021/09/17 04:46:08;;;;;;;5.93;4.53;;;13.10;99.90;;;;;;5070110;28;20857;-72
2021/09/17 04:48:36;;;;;;;5.83;4.63;;;13.10;99.90;;;;;;5069757;28;20830;-72
2021/09/17 04:51:03;;;;;;;6.53;4.73;;;13.10;99.90;;;;;;5070304;28;20454;-72
2021/09/17 04:53:30;;;;;;;6.00;5.10;;;13.10;99.90;;;;;;5069224;28;20458;-72
2021/09/17 04:55:56;;;;;;;5.60;4.57;;;13.10;99.90;;;;;;5069917;28;20454;-72
2021/09/17 04:58:23;;;;;;;4.60;4.20;;;13.10;99.90;;;;;;5069927;28;20483;-71
2021/09/17 05:00:50;;;;;;;6.00;5.07;;;13.10;99.90;;;;;;5069593;28;21006;-71
2021/09/17 05:03:16;;;;;;;5.73;4.47;;;13.00;99.90;;;;;;5069300;28;20836;-72
2021/09/17 05:05:44;;;;;;;4.73;4.30;;;13.00;99.90;;;;;;5069884;28;20458;-72
2021/09/17 05:08:11;;;;;;;5.00;4.50;;;13.00;99.90;;;;;;5069768;28;20493;-72
2021/09/17 05:10:38;;;;;;;4.23;3.83;;;13.00;99.90;;;;;;5069952;28;20938;-72
2021/09/17 05:13:04;;;;;;;6.17;4.30;;;13.00;99.90;;;;;;5068826;28;20466;-72
2021/09/17 05:15:31;;;;;;;6.95;4.32;;;13.00;99.90;;;;;;5069147;28;20510;-72
2021/09/17 05:17:58;;;;;;;11.93;5.83;;;13.00;99.90;;;;;;5069450;28;20231;-71
2021/09/17 05:20:24;;;;;;;12.80;7.20;;;13.00;99.90;;;;;;5069574;28;20486;-72
2021/09/17 05:22:54;;;;;;;15.07;7.72;;;13.00;99.90;;;;;;5069053;28;20458;-72
2021/09/17 05:25:20;;;;;;;10.73;6.60;;;12.90;99.90;;;;;;5069423;28;20213;-72
2021/09/17 05:27:47;;;;;;;11.33;5.77;;;12.90;99.90;;;;;;5069949;28;20482;-72
2021/09/17 05:30:14;;;;;;;8.43;5.70;;;12.90;99.90;;;;;;5068683;28;20966;-71
2021/09/17 05:32:41;;;;;;;10.93;6.40;;;12.80;99.90;;;;;;5068677;28;20469;-71
2021/09/17 05:35:08;;;;;;;7.10;6.25;;;12.80;99.90;;;;;;5068787;28;20459;-71
2021/09/17 05:37:35;;;;;;;8.50;5.30;;;12.70;99.90;;;;;;5068929;28;20225;-71
2021/09/17 05:40:04;;;;;;;9.50;5.47;;;12.80;99.90;;;;;;5069035;28;20489;-72
2021/09/17 05:42:31;;;;;;;8.57;5.90;;;12.80;99.90;;;;;;5068944;28;20462;-72
2021/09/17 05:44:57;;;;;;;7.47;5.07;;;12.70;99.90;;;;;;5069674;28;20200;-72
2021/09/17 05:47:24;;;;;;;5.82;4.82;;;12.70;99.90;;;;;;5068790;28;20546;-71
2021/09/17 05:49:51;;;;;;;5.50;5.00;;;12.70;99.90;;;;;;5070000;28;20208;-72
2021/09/17 05:52:18;;;;;;;5.50;5.00;;;12.60;99.90;;;;;;5068868;28;20207;-71
2021/09/17 05:54:46;;;;;;;5.60;5.00;;;12.60;99.90;;;;;;5069871;28;20200;-72
2021/09/17 05:57:14;;;;;;;5.63;5.05;;;12.60;99.90;;;;;;5072651;28;20231;-72
2021/09/17 05:59:41;;;;;;;5.18;4.68;;;12.60;99.90;;;;;;5073226;28;20228;-72
2021/09/17 06:02:08;;;;;;;8.05;5.30;;;12.60;99.90;;;;;;5072929;28;20671;-72
2021/09/17 06:04:35;;;;;;;5.37;4.87;;;12.60;99.90;;;;;;5071881;28;20215;-72
2021/09/17 06:07:02;;;;;;;5.57;5.00;;;12.70;99.90;;;;;;5072495;28;20975;-72
2021/09/17 06:09:29;;;;;;;8.82;5.82;;;12.70;99.90;;;;;;5071840;28;20200;-72
2021/09/17 06:11:55;;;;;;;5.90;5.40;;;12.80;99.90;;;;;;5071937;28;20188;-71
2021/09/17 06:14:23;;;;;;;5.53;4.93;;;12.70;99.90;;;;;;5071400;28;20493;-71
2021/09/17 06:16:50;;;;;;;6.68;6.07;;;12.80;99.90;;;;;;5072138;28;20208;-72
2021/09/17 06:19:17;;;;;;;6.72;5.78;;;12.80;99.90;;;;;;5072466;28;20566;-72
2021/09/17 06:21:44;;;;;;;7.03;6.17;;;12.90;99.90;;;;;;5072488;28;20228;-72
2021/09/17 06:24:10;;;;;;;6.97;5.97;;;12.90;99.90;;;;;;5071945;28;20462;-72
2021/09/17 06:26:37;;;;;;;6.03;5.50;;;13.00;99.90;;;;;;5072519;28;20928;-71
2021/09/17 06:29:06;;;;;;;7.72;6.20;;;13.00;99.90;;;;;;5072558;28;20482;-72
2021/09/17 06:31:35;;;;;;;5.73;4.97;;;13.10;99.90;;;;;;5071888;28;20241;-72
2021/09/17 06:34:02;;;;;;;5.90;5.07;;;13.10;99.90;;;;;;5072114;28;20462;-72
2021/09/17 06:36:29;;;;;;;5.65;5.15;;;13.10;99.90;;;;;;5072244;28;20462;-72
2021/09/17 06:38:56;;;;;;;6.50;5.90;;;13.20;99.90;;;;;;5072288;28;20224;-72
2021/09/17 06:41:23;;;;;;;6.60;6.00;;;13.20;99.90;;;;;;5072003;28;20486;-71
2021/09/17 06:43:50;;;;;;;12.03;5.60;;;13.20;99.90;;;;;;5071400;28;20969;-72
2021/09/17 06:46:17;;;;;;;7.27;5.93;;;13.30;99.90;;;;;;5071779;28;20462;-72
2021/09/17 06:48:45;;;;;;;7.13;5.57;;;13.30;99.90;;;;;;5072237;28;20478;-72
2021/09/17 06:51:14;;;;;;;6.20;5.60;;;13.40;99.90;;;;;;5071933;28;20454;-72
2021/09/17 06:53:41;;;;;;;5.77;5.20;;;13.50;99.90;;;;;;5071729;28;20474;-72
2021/09/17 06:56:09;;;;;;;6.97;6.27;;;13.50;99.90;;;;;;5071757;28;20467;-72
2021/09/17 06:58:36;;;;;;;7.00;5.90;;;13.60;99.90;;;;;;5072210;28;20846;-72
2021/09/17 07:01:03;;;;;;;5.63;5.13;;;13.60;99.90;;;;;;5071039;28;20571;-72
2021/09/17 07:03:31;;;;;;;6.40;5.90;;;13.70;99.90;;;;;;5064509;28;20939;-72
2021/09/17 07:06:00;;;;;;;8.43;6.20;;;13.70;99.90;;;;;;5076346;28;20827;-72
2021/09/17 07:08:28;;;;;;;6.70;6.10;;;13.80;99.90;;;;;;5080183;28;20894;-72
2021/09/17 07:10:56;;;;;;;7.30;6.07;;;13.90;99.90;;;;;;5070310;28;20494;-72
2021/09/17 07:13:24;;;;;;;6.77;6.10;;;13.90;99.90;;;;;;5069218;28;20524;-71
2021/09/17 07:15:52;;;;;;;6.57;5.97;;;13.90;99.90;;;;;;5070527;28;20882;-72
2021/09/17 07:18:19;;;;;;;6.67;6.07;;;14.00;99.90;;;;;;5069984;28;20853;-72
2021/09/17 07:20:48;;;;;;;8.00;7.30;;;14.00;99.90;;;;;;5069638;28;20493;-72
2021/09/17 07:23:17;;;;;;;6.50;5.90;;;14.10;99.90;;;;;;5069297;28;20964;-72
2021/09/17 07:25:45;;;;;;;9.00;6.80;;;14.10;99.90;;;;;;5070163;28;20546;-72
2021/09/17 07:28:13;;;;;;;7.70;6.90;;;14.10;99.90;;;;;;5070087;28;20475;-72
2021/09/17 07:30:42;;;;;;;9.10;6.73;;;14.10;99.90;;;;;;5070051;28;20487;-72
2021/09/17 07:33:10;;;;;;;8.33;5.83;;;14.20;99.90;;;;;;5069312;28;20465;-72
2021/09/17 07:35:37;;;;;;;6.50;5.57;;;14.20;99.90;;;;;;5070186;28;20561;-72
2021/09/17 07:38:04;;;;;;;7.23;5.93;;;14.30;99.90;;;;;;5069495;28;20475;-72
2021/09/17 07:40:33;;;;;;;6.30;5.70;;;14.30;99.90;;;;;;5069200;28;20908;-72
2021/09/17 07:43:01;;;;;;;7.40;6.37;;;14.30;99.90;;;;;;5069011;28;20835;-72
2021/09/17 07:45:29;;;;;;;6.47;5.83;;;14.40;99.90;;;;;;5069144;28;20469;-72
2021/09/17 07:47:59;;;;;;;8.20;6.80;;;14.40;99.90;;;;;;5069903;28;20939;-71
2021/09/17 07:50:27;;;;;;;7.47;6.50;;;14.50;99.90;;;;;;5068657;28;20511;-72
2021/09/17 07:52:57;;;;;;;7.33;6.10;;;14.50;99.90;;;;;;5068831;28;20945;-72
2021/09/17 07:55:26;;;;;;;8.00;6.17;;;14.50;99.90;;;;;;5068715;28;20756;-71
2021/09/17 07:57:55;;;;;;;7.93;7.17;;;14.60;99.90;;;;;;5069469;28;20485;-72
2021/09/17 08:00:23;;;;;;;7.20;6.50;;;14.60;99.90;;;;;;5068800;28;20473;-72
2021/09/17 08:02:51;;;;;;;7.80;7.00;;;14.60;99.90;;;;;;5069004;28;20463;-72
2021/09/17 08:05:19;;;;;;;7.10;6.40;;;14.70;99.90;;;;;;5069189;28;20458;-72
2021/09/17 08:07:52;;;;;;;7.43;6.63;;;14.70;99.90;;;;;;5069251;28;20905;-72
2021/09/17 08:10:20;;;;;;;7.00;5.73;;;14.80;99.90;;;;;;5069103;28;20557;-72
2021/09/17 08:12:47;;;;;;;6.10;5.50;;;14.80;99.90;;;;;;5069095;28;20466;-72
2021/09/17 08:15:20;;;;;;;5.73;5.13;;;14.90;99.90;;;;;;5068824;28;20482;-72
2021/09/17 08:17:47;;;;;;;6.77;6.07;;;15.00;99.90;;;;;;5068809;28;20890;-72
2021/09/17 08:20:18;;;;;;;7.17;6.53;;;15.00;99.90;;;;;;5068040;28;20512;-72
2021/09/17 08:22:46;;;;;;;7.37;5.93;;;15.10;99.90;;;;;;5068848;28;20461;-72
2021/09/17 08:25:15;;;;;;;6.73;6.03;;;15.10;99.90;;;;;;5068920;28;21086;-72
2021/09/17 08:27:43;;;;;;;6.80;5.50;;;15.20;99.90;;;;;;5062656;28;20515;-72
2021/09/17 08:30:15;;;;;;;6.80;6.03;;;15.20;99.90;;;;;;5062686;28;20486;-72
2021/09/17 08:32:53;;;;;;;7.30;6.20;;;15.30;99.90;;;;;;5067003;28;21022;-72
2021/09/17 08:35:22;;;;;;;7.00;6.30;;;15.30;99.90;;;;;;5068838;28;20458;-72
2021/09/17 08:37:51;;;;;;;9.57;7.50;;;15.40;99.90;;;;;;5067606;28;20935;-72
2021/09/17 08:40:19;;;;;;;20.47;8.43;;;15.40;99.90;;;;;;5066993;28;20462;-72
2021/09/17 08:42:47;;;;;;;7.00;6.27;;;15.50;99.90;;;;;;5068287;28;20522;-72
2021/09/17 08:45:15;;;;;;;7.27;6.57;;;15.50;99.90;;;;;;5067668;28;20462;-72
2021/09/17 08:47:50;;;;;;;7.03;6.40;;;15.60;99.90;;;;;;5068832;28;20482;-73
2021/09/17 08:50:18;;;;;;;7.27;6.57;;;15.70;99.90;;;;;;5067150;28;20689;-72
2021/09/17 08:52:46;;;;;;;9.17;7.23;;;15.70;99.90;;;;;;5068342;28;20806;-73
2021/09/17 08:55:14;;;;;;;9.07;6.57;;;15.80;99.90;;;;;;5068391;28;20462;-72
2021/09/17 08:57:44;;;;;;;8.30;6.80;;;15.80;99.90;;;;;;5068204;28;20532;-72
2021/09/17 09:00:42;;;;;;;6.70;6.10;;;15.90;99.90;;;;;;5068336;28;20471;-72
2021/09/17 09:03:27;;;;;;;7.83;6.60;;;16.00;99.90;;;;;;5086742;28;20865;-72
2021/09/17 09:06:10;;;;;;;7.10;6.40;;;16.00;99.90;;;;;;5088969;28;20905;-72
2021/09/17 09:08:39;;;;;;;7.00;6.30;;;16.00;99.90;;;;;;5086264;28;20484;-71
2021/09/17 09:11:16;;;;;;;6.40;5.80;;;16.10;99.90;;;;;;5047571;28;20550;-72
2021/09/17 09:14:03;;;;;;;7.37;6.50;;;16.10;99.90;;;;;;5047549;28;20459;-72
2021/09/17 09:16:34;;;;;;;7.43;6.73;;;16.20;99.90;;;;;;5053738;28;20513;-72
2021/09/17 09:32:34;;;;;;;5.83;5.30;;;16.50;99.90;;;;;;5050655;28;21016;-69
2021/09/17 09:35:02;;;;;;;9.23;7.30;;;16.60;99.90;;;;;;5053535;28;20462;-69
2021/09/17 09:37:31;;;;;;;8.00;7.30;;;16.60;99.90;;;;;;5053639;28;20475;-69
2021/09/17 09:40:00;;;;;;;8.37;7.57;;;16.70;99.90;;;;;;5053752;28;20459;-69
2021/09/17 09:42:33;;;;;;;7.87;7.07;;;16.70;99.90;;;;;;5053650;28;20483;-69
2021/09/17 09:45:13;;;;;;;7.33;6.63;;;16.80;99.90;;;;;;5053494;28;20846;-68
2021/09/17 09:47:42;;;;;;;6.20;5.70;;;16.80;99.90;;;;;;5053791;28;20931;-69
2021/09/17 09:50:11;;;;;;;6.53;5.20;;;16.90;99.90;;;;;;5052460;28;20463;-69
2021/09/17 09:52:38;;;;;;;6.40;5.80;;;16.90;99.90;;;;;;5052486;28;20857;-68
2021/09/17 09:55:06;;;;;;;6.40;5.80;;;17.00;99.90;;;;;;5051926;28;20471;-68
2021/09/17 09:57:33;;;;;;;5.70;5.20;;;17.10;99.90;;;;;;5052255;28;20490;-68
2021/09/17 10:00:03;;;;;;;6.77;5.73;;;17.20;99.90;;;;;;5051951;28;20498;-68
2021/09/17 10:02:31;;;;;;;6.60;5.30;;;17.20;99.90;;;;;;5033920;28;20480;-68
2021/09/17 10:04:59;;;;;;;7.20;5.33;;;17.30;99.90;;;;;;5032588;28;20467;-68
2021/09/17 10:07:28;;;;;;;5.80;5.30;;;17.30;99.90;;;;;;5033075;28;20491;-68
2021/09/17 10:09:56;;;;;;;5.00;4.50;;;17.40;99.90;;;;;;5032959;28;20460;-69
2021/09/17 10:12:23;;;;;;;4.53;4.20;;;17.40;99.90;;;;;;5032580;28;20491;-69
2021/09/17 10:14:52;;;;;;;4.30;3.90;;;17.50;99.90;;;;;;5032515;28;20504;-68
2021/09/17 10:17:22;;;;;;;5.10;4.07;;;17.50;99.90;;;;;;5033112;28;20472;-68
2021/09/17 10:19:51;;;;;;;5.50;5.00;;;17.50;99.90;;;;;;5032708;28;20464;-68
2021/09/17 10:22:29;;;;;;;4.67;4.27;;;17.50;99.90;;;;;;5032745;28;20484;-68
2021/09/17 10:25:11;;;;;;;4.20;3.80;;;17.60;99.90;;;;;;5032050;28;20471;-68
2021/09/17 10:27:40;;;;;;;4.67;4.27;;;17.60;99.90;;;;;;5043267;28;20475;-68
2021/09/17 10:30:09;;;;;;;4.27;3.87;;;17.60;99.90;;;;;;5052178;28;20958;-68
2021/09/17 10:32:45;;;;;;;4.37;4.00;;;17.70;99.90;;;;;;5052254;28;20455;-68
2021/09/17 10:35:15;;;;;;;3.63;3.33;;;17.70;99.90;;;;;;5052292;28;20491;-67
2021/09/17 10:37:53;;;;;;;3.40;3.10;;;17.70;99.90;;;;;;5052437;28;21018;-67
2021/09/17 10:40:35;;;;;;;4.13;3.83;;;17.80;99.90;;;;;;5051648;28;21022;-66
2021/09/17 10:43:33;;;;;;;3.60;3.30;;;17.80;99.90;;;;;;5051192;28;20901;-66
2021/09/17 10:46:02;;;;;;;4.07;3.67;;;17.70;99.90;;;;;;5051731;28;20554;-67
2021/09/17 10:48:51;;;;;;;4.73;3.70;;;17.70;99.90;;;;;;5049329;28;21060;-67
2021/09/17 10:51:33;;;;;;;4.20;3.43;;;17.60;99.90;;;;;;5051476;28;20459;-66
2021/09/17 10:54:04;;;;;;;3.77;3.47;;;17.60;99.90;;;;;;5049987;28;20854;-65
2021/09/17 10:57:02;;;;;;;4.30;3.90;;;17.60;99.90;;;;;;5050808;28;20459;-66
2021/09/17 10:59:41;;;;;;;5.30;3.37;;;17.60;99.90;;;;;;5051067;28;20455;-67
2021/09/17 11:02:09;;;;;;;3.77;3.37;;;17.50;99.90;;;;;;5051178;28;20513;-67
2021/09/17 11:04:39;;;;;;;3.67;3.30;;;17.50;99.90;;;;;;5050325;28;20456;-68
2021/09/17 11:07:37;;;;;;;3.20;2.90;;;17.50;99.90;;;;;;5050565;28;20955;-67
2021/09/17 11:10:23;;;;;;;4.60;3.50;;;17.40;99.90;;;;;;5046672;28;20471;-68
2021/09/17 11:12:51;;;;;;;3.60;3.30;;;17.30;99.90;;;;;;5050766;28;20459;-68
2021/09/17 11:15:22;;;;;;;4.97;3.60;;;17.30;99.90;;;;;;5050399;28;20550;-67
2021/09/17 11:17:50;;;;;;;3.80;3.10;;;17.20;99.90;;;;;;5050365;28;20989;-68
2021/09/17 11:20:20;;;;;;;3.33;2.80;;;17.20;99.90;;;;;;5050447;28;20482;-68
2021/09/17 11:23:08;;;;;;;3.30;3.00;;;17.20;99.90;;;;;;5050046;28;20487;-67
2021/09/17 11:25:38;;;;;;;3.77;2.73;;;17.20;99.90;;;;;;5065262;28;20447;-68
2021/09/17 11:28:07;;;;;;;3.40;3.10;;;17.20;99.90;;;;;;5070305;28;20569;-68
2021/09/17 11:30:35;;;;;;;2.97;2.77;;;17.10;99.90;;;;;;5070132;28;20466;-68
2021/09/17 11:33:16;;;;;;;3.53;3.23;;;17.10;99.90;;;;;;5069078;28;20462;-67
2021/09/17 11:35:43;;;;;;;3.70;3.40;;;17.10;99.90;;;;;;5071639;28;20516;-67
2021/09/17 11:38:10;;;;;;;4.23;3.23;;;17.00;99.90;;;;;;5071283;28;20478;-68
2021/09/17 11:40:50;;;;;;;4.27;3.43;;;17.10;99.90;;;;;;5071487;28;20459;-67
2021/09/17 11:43:18;;;;;;;3.57;3.27;;;17.00;99.90;;;;;;5070885;28;20493;-68
2021/09/17 11:45:46;;;;;;;3.50;3.20;;;17.10;99.90;;;;;;5071239;28;20459;-67
2021/09/17 11:48:20;;;;;;;3.60;3.30;;;17.10;99.90;;;;;;5070877;28;20850;-67
2021/09/17 11:50:47;;;;;;;3.83;3.43;;;17.00;99.90;;;;;;5069168;28;20486;-68
2021/09/17 11:53:15;;;;;;;3.83;3.47;;;17.00;99.90;;;;;;5063004;28;20455;-67
2021/09/17 11:55:43;;;;;;;3.03;2.80;;;17.00;99.90;;;;;;5049166;28;20857;-67
2021/09/17 11:58:10;;;;;;;3.30;3.00;;;17.00;99.90;;;;;;5049438;28;21219;-67
2021/09/17 12:00:37;;;;;;;3.50;3.20;;;17.00;99.90;;;;;;5049373;28;20463;-68
2021/09/17 12:03:07;;;;;;;3.70;3.40;;;17.10;99.90;;;;;;5047677;28;20483;-68
2021/09/17 12:05:37;;;;;;;3.40;3.10;;;17.10;99.90;;;;;;5049316;28;20483;-68
2021/09/17 12:08:07;;;;;;;3.40;3.10;;;17.20;99.90;;;;;;5048979;28;20519;-66
2021/09/17 12:10:36;;;;;;;3.20;2.90;;;17.20;99.90;;;;;;5049436;28;20939;-66
2021/09/17 12:13:06;;;;;;;3.33;3.03;;;17.20;99.90;;;;;;5048875;28;20466;-65
2021/09/17 12:15:36;;;;;;;4.30;3.40;;;17.20;99.90;;;;;;5049695;28;20468;-66
2021/09/17 12:18:06;;;;;;;3.77;3.30;;;17.30;99.90;;;;;;5049249;28;20479;-67
2021/09/17 12:20:46;;;;;;;6.00;3.00;;;17.30;99.90;;;;;;5049074;28;20558;-66
2021/09/17 12:23:15;;;;;;;3.07;2.87;;;17.40;99.90;;;;;;5048723;28;20502;-66
2021/09/17 12:25:45;;;;;;;2.90;2.67;;;17.50;99.90;;;;;;5049107;28;20548;-66
2021/09/17 12:28:21;;;;;;;3.50;3.10;;;17.50;99.90;;;;;;5049219;28;20483;-66
2021/09/17 12:30:52;;;;;;;3.10;2.80;;;17.60;99.90;;;;;;5034817;28;21021;-66
2021/09/17 12:33:22;;;;;;;3.43;3.23;;;17.60;99.90;;;;;;5027690;28;20451;-68
2021/09/17 12:35:52;;;;;;;5.43;3.00;;;17.70;99.90;;;;;;5029187;28;20461;-66
2021/09/17 12:38:21;;;;;;;2.80;2.60;;;17.80;99.90;;;;;;5044980;28;20479;-66
2021/09/17 12:40:52;;;;;;;4.70;3.23;;;17.90;99.90;;;;;;5047694;28;20521;-66
2021/09/17 12:43:29;;;;;;;3.23;2.93;;;18.00;99.90;;;;;;5047750;28;20920;-68
2021/09/17 12:45:59;;;;;;;3.00;2.80;;;18.20;99.90;;;;;;5046981;28;20467;-66
2021/09/17 12:48:30;;;;;;;4.60;3.27;;;18.30;99.90;;;;;;5040907;28;20534;-66
2021/09/17 12:50:58;;;;;;;3.07;2.87;;;18.50;99.90;;;;;;5027974;28;20464;-67
2021/09/17 12:53:26;;;;;;;3.13;2.90;;;18.60;99.90;;;;;;5032964;28;20467;-66
2021/09/17 12:56:03;;;;;;;5.13;3.03;;;18.70;99.90;;;;;;5046625;28;20464;-68
2021/09/17 12:58:32;;;;;;;4.23;2.80;;;18.80;99.90;;;;;;5047507;28;20475;-68
2021/09/17 13:01:02;;;;;;;4.30;3.87;;;19.00;99.90;;;;;;5039632;28;20562;-68
2021/09/17 13:03:30;;;;;;;4.40;3.83;;;19.20;99.90;;;;;;5047684;28;20570;-68
2021/09/17 13:06:01;;;;;;;3.60;3.30;;;19.40;99.90;;;;;;5054148;28;20451;-68
2021/09/17 13:08:29;;;;;;;3.50;2.93;;;19.60;99.90;;;;;;5044042;28;20479;-68